Time;durP1;ratioP1;P1;durP2;ratioP2;P2;SDS_P1;SDS_P2;PMS_P1;PMS_P2;Temp;Humidity;BMP_temperature;BMP_pressure;BME280_temperature;BME280_humidity;BME280_pressure;Samples;Min_cycle;Max_cycle;Signal;HPM_P1;HPM_P2
2022/10/23 00:00:22;;;;;;;4.95;3.05;;;;;;;14.67;91.81;100168.31;10421402;28;20044;-69
2022/10/23 00:05:25;;;;;;;7.18;3.67;;;;;;;14.67;91.42;100165.63;10436006;28;20769;-70
2022/10/23 00:10:27;;;;;;;3.83;3.45;;;;;;;14.66;92.43;100179.19;10430101;28;20068;-69
2022/10/23 00:15:28;;;;;;;6.97;4.38;;;;;;;14.67;91.33;100168.31;10438580;28;20109;-70
2022/10/23 00:20:29;;;;;;;6.93;4.03;;;;;;;14.61;91.77;100173.44;10439695;28;20686;-69
2022/10/23 00:25:32;;;;;;;6.05;4.68;;;;;;;14.57;91.44;100178.22;10435837;28;20068;-66
2022/10/23 00:30:33;;;;;;;11.50;5.25;;;;;;;14.54;92.11;100170.47;10421373;28;20094;-69
2022/10/23 00:35:39;;;;;;;9.50;4.80;;;;;;;14.45;92.23;100169.53;10436342;28;20056;-67
2022/10/23 00:40:42;;;;;;;8.30;3.95;;;;;;;14.42;92.71;100167.16;10416256;28;20048;-67
2022/10/23 00:45:44;;;;;;;9.23;3.92;;;;;;;14.46;91.79;100162.38;10434540;28;20673;-70
2022/10/23 00:50:47;;;;;;;6.85;3.65;;;;;;;14.46;91.75;100170.41;10440557;28;20135;-68
2022/10/23 00:55:52;;;;;;;4.97;3.38;;;;;;;14.43;91.46;100166.19;10429640;28;20059;-69
2022/10/23 01:00:55;;;;;;;5.75;2.85;;;;;;;14.44;91.12;100143.78;10431086;28;20040;-70
2022/10/23 01:06:00;;;;;;;4.60;3.47;;;;;;;14.37;92.29;100141.88;10431627;28;20044;-69
2022/10/23 01:11:11;;;;;;;;;;;;;;;14.30;92.38;100122.88;10416187;28;20074;-70
2022/10/23 01:16:30;;;;;;;5.40;3.38;;;;;;;14.26;92.50;100126.81;10439889;28;19927;-70
2022/10/23 01:21:53;;;;;;;7.63;3.80;;;;;;;14.20;92.39;100119.41;10434885;28;20056;-70
2022/10/23 01:27:21;;;;;;;7.70;3.75;;;;;;;14.26;92.52;100124.16;10457198;28;20127;-70
2022/10/23 01:32:28;;;;;;;6.47;4.70;;;;;;;14.19;92.73;100137.31;10465865;28;20057;-69
2022/10/23 01:37:40;;;;;;;6.57;3.78;;;;;;;14.15;92.92;100131.38;10465083;28;20044;-69
2022/10/23 01:42:47;;;;;;;8.23;3.50;;;;;;;14.14;92.85;100113.66;10423044;28;20100;-69
2022/10/23 01:47:50;;;;;;;7.05;3.45;;;;;;;14.17;92.34;100117.03;10436843;28;20048;-68
2022/10/23 01:52:52;;;;;;;5.57;4.03;;;;;;;14.08;92.14;100108.91;10414752;28;20053;-68
2022/10/23 01:57:53;;;;;;;5.65;3.65;;;;;;;14.05;92.44;100103.88;10436363;28;20059;-69
2022/10/23 02:02:57;;;;;;;6.65;3.17;;;;;;;14.06;91.90;100110.06;10422215;28;20060;-68
2022/10/23 02:07:59;;;;;;;4.20;3.28;;;;;;;14.03;92.51;100108.50;10406473;28;20778;-71
2022/10/23 02:13:17;;;;;;;4.75;3.33;;;;;;;13.98;92.37;100086.72;10428030;28;20064;-68
2022/10/23 02:18:39;;;;;;;6.05;3.25;;;;;;;13.97;93.57;100071.66;10430814;28;20101;-69
2022/10/23 02:23:49;;;;;;;7.38;3.63;;;;;;;13.97;92.72;100074.31;10412506;28;20041;-69
2022/10/23 02:29:07;;;;;;;9.55;3.28;;;;;;;14.00;92.75;100083.88;10434938;28;20634;-69
2022/10/23 02:34:09;;;;;;;4.97;3.22;;;;;;;13.97;92.53;100077.00;10426479;28;20052;-70
2022/10/23 02:39:10;;;;;;;6.85;3.65;;;;;;;13.95;92.66;100076.31;10435408;28;20060;-69
2022/10/23 02:44:24;;;;;;;4.38;2.88;;;;;;;13.94;92.77;100069.28;10419506;28;20400;-70
2022/10/23 02:49:50;;;;;;;6.17;3.30;;;;;;;13.93;92.80;100041.69;10435034;28;20037;-69
2022/10/23 02:55:04;;;;;;;6.43;3.40;;;;;;;13.92;92.80;100041.84;10430713;28;20055;-70
2022/10/23 03:00:13;;;;;;;4.97;3.40;;;;;;;13.95;93.24;100050.38;10449292;28;20057;-69
2022/10/23 03:05:20;;;;;;;5.10;3.50;;;;;;;14.07;91.12;100061.72;10448600;28;20094;-75
2022/10/23 03:10:22;;;;;;;6.40;3.25;;;;;;;14.09;91.66;100046.34;10443712;28;20052;-70
2022/10/23 03:15:24;;;;;;;5.53;2.85;;;;;;;14.10;90.92;100047.22;10440150;28;20053;-70
2022/10/23 03:20:25;;;;;;;3.95;2.30;;;;;;;14.00;91.33;100031.19;10469232;28;20044;-71
2022/10/23 03:25:27;;;;;;;9.07;2.92;;;;;;;13.98;92.41;100049.25;10479111;28;20051;-71
2022/10/23 03:30:28;;;;;;;3.53;2.47;;;;;;;14.02;91.54;100047.97;10463139;28;20117;-70
2022/10/23 03:35:29;;;;;;;4.72;2.33;;;;;;;14.08;91.16;100052.72;10471252;28;20041;-69
2022/10/23 03:40:31;;;;;;;5.25;2.55;;;;;;;14.13;90.74;100049.59;10451922;28;20120;-70
2022/10/23 03:45:33;;;;;;;5.47;3.08;;;;;;;14.13;90.92;100036.19;10472570;28;20105;-71
2022/10/23 03:50:34;;;;;;;4.03;2.58;;;;;;;14.04;90.91;100040.63;10471892;28;20525;-70
2022/10/23 03:55:35;;;;;;;6.40;3.55;;;;;;;13.93;91.43;100030.97;10452276;28;20052;-68
2022/10/23 04:00:37;;;;;;;4.95;2.70;;;;;;;13.79;91.42;100021.59;10440412;28;20053;-70
2022/10/23 04:05:40;;;;;;;3.80;2.22;;;;;;;13.78;90.91;100041.34;10431195;28;20126;-70
2022/10/23 04:10:41;;;;;;;3.13;2.22;;;;;;;13.97;91.84;100042.22;10439411;28;20036;-69
2022/10/23 04:15:52;;;;;;;4.80;2.67;;;;;;;14.11;92.78;100033.69;10435122;28;20584;-68
2022/10/23 04:20:53;;;;;;;7.47;2.40;;;;;;;14.05;88.94;100052.16;10439374;28;20055;-71
2022/10/23 04:25:56;;;;;;;3.15;1.80;;;;;;;13.99;88.90;100050.09;10430287;28;20063;-71
2022/10/23 04:30:57;;;;;;;4.60;2.22;;;;;;;13.91;90.87;100058.88;10452355;28;20287;-70
2022/10/23 04:35:59;;;;;;;4.30;2.10;;;;;;;13.92;89.18;100052.53;10457460;28;20442;-69
2022/10/23 04:41:00;;;;;;;3.60;1.92;;;;;;;13.75;89.67;100028.28;10401517;28;20650;-67
2022/10/23 04:46:01;;;;;;;4.45;1.90;;;;;;;13.70;90.53;100029.69;10438834;28;20056;-70
2022/10/23 04:51:04;;;;;;;5.80;2.30;;;;;;;13.68;91.55;100034.38;10437588;28;20048;-70
2022/10/23 04:56:06;;;;;;;3.45;1.77;;;;;;;13.67;91.11;100041.53;10421340;28;20061;-69
2022/10/23 05:01:09;;;;;;;6.15;1.83;;;;;;;13.66;92.26;100031.84;10437320;28;20845;-71
2022/10/23 05:06:11;;;;;;;2.75;1.60;;;;;;;13.65;92.13;100038.19;10438622;28;20079;-70
2022/10/23 05:11:12;;;;;;;3.97;1.90;;;;;;;13.64;92.31;100009.75;10470769;28;20063;-72
2022/10/23 05:16:36;;;;;;;3.42;1.80;;;;;;;13.60;92.59;100014.56;10426821;28;20064;-71
2022/10/23 05:21:39;;;;;;;3.72;1.40;;;;;;;13.60;92.16;100032.41;10413926;28;21082;-70
2022/10/23 05:26:40;;;;;;;1.85;1.40;;;;;;;13.60;91.92;100025.25;10405609;28;20041;-70
2022/10/23 05:31:42;;;;;;;5.38;2.25;;;;;;;13.61;93.43;100039.47;10419645;28;20049;-69
2022/10/23 05:36:44;;;;;;;3.38;2.00;;;;;;;13.60;92.21;100017.22;10414229;28;20063;-72
2022/10/23 05:41:46;;;;;;;3.80;1.80;;;;;;;13.56;92.03;100009.66;10404145;28;20234;-69
2022/10/23 05:46:47;;;;;;;7.00;2.28;;;;;;;13.58;91.93;100010.34;10418498;28;20407;-68
2022/10/23 05:51:48;;;;;;;3.33;1.92;;;;;;;13.54;91.81;99998.25;10419869;28;20499;-69
2022/10/23 05:56:50;;;;;;;6.78;1.98;;;;;;;13.50;91.37;99997.72;10419184;28;20052;-69
2022/10/23 06:01:52;;;;;;;4.03;1.95;;;;;;;13.43;92.40;99986.75;10399159;28;20530;-69
2022/10/23 06:06:53;;;;;;;3.05;1.52;;;;;;;13.46;91.79;99984.78;10424276;28;20155;-67
2022/10/23 06:11:55;;;;;;;3.60;2.35;;;;;;;13.45;92.08;99978.63;10425904;28;20056;-69
2022/10/23 06:16:56;;;;;;;3.55;2.40;;;;;;;13.46;91.61;99982.94;10415118;28;20645;-69
2022/10/23 06:21:57;;;;;;;3.70;2.13;;;;;;;13.41;91.84;99972.72;10424841;28;20048;-68
2022/10/23 06:26:59;;;;;;;4.05;1.90;;;;;;;13.42;91.96;99974.41;10410494;28;20048;-70
2022/10/23 06:32:00;;;;;;;3.05;2.33;;;;;;;13.43;91.12;99973.38;10422170;28;20056;-71
2022/10/23 06:37:01;;;;;;;3.72;1.90;;;;;;;13.46;91.78;99984.78;10426472;28;20048;-69
2022/10/23 06:42:03;;;;;;;3.05;1.90;;;;;;;13.54;90.95;99987.56;10449049;28;20092;-72
2022/10/23 06:47:05;;;;;;;5.38;2.03;;;;;;;13.60;90.35;99987.81;10439214;28;20039;-71
2022/10/23 06:52:06;;;;;;;4.05;2.10;;;;;;;13.66;90.50;99985.53;10450238;28;20048;-70
2022/10/23 06:57:28;;;;;;;5.03;2.20;;;;;;;13.72;90.82;99985.78;10420768;28;20122;-70
2022/10/23 07:02:29;;;;;;;5.18;1.92;;;;;;;13.76;89.18;99971.09;10422326;28;20051;-73
2022/10/23 07:07:31;;;;;;;3.42;1.70;;;;;;;13.87;89.09;99977.22;10420503;28;20942;-72
2022/10/23 07:12:32;;;;;;;3.85;2.10;;;;;;;13.92;89.09;99969.59;10413768;28;21300;-73
2022/10/23 07:17:33;;;;;;;4.07;2.42;;;;;;;13.98;88.79;99979.69;10416326;28;20048;-71
2022/10/23 07:22:34;;;;;;;3.65;1.80;;;;;;;14.11;88.30;99979.28;10419490;28;20232;-70
2022/10/23 07:27:37;;;;;;;5.93;2.60;;;;;;;14.28;86.67;99996.34;10419606;28;20607;-69
2022/10/23 07:32:38;;;;;;;6.75;1.95;;;;;;;14.43;86.12;99984.09;10416967;28;20060;-68
2022/10/23 07:37:40;;;;;;;5.50;2.60;;;;;;;14.51;84.53;99986.00;10419676;28;20059;-69
2022/10/23 07:42:42;;;;;;;4.30;2.63;;;;;;;14.61;84.37;99981.41;10416156;28;20041;-69
2022/10/23 07:47:49;;;;;;;3.45;2.33;;;;;;;14.69;83.68;99972.59;10397100;28;20045;-70
2022/10/23 07:52:50;;;;;;;4.30;2.13;;;;;;;14.83;82.53;99976.53;10380383;28;20049;-69
2022/10/23 07:57:52;;;;;;;2.95;2.20;;;;;;;15.01;81.77;99980.00;10377669;28;20057;-70
2022/10/23 08:02:53;;;;;;;4.30;2.80;;;;;;;15.11;80.98;99979.03;10414343;28;20059;-71
2022/10/23 08:07:54;;;;;;;6.55;3.35;;;;;;;15.23;80.51;99976.94;10398783;28;20055;-69
2022/10/23 08:12:55;;;;;;;4.35;2.05;;;;;;;15.34;79.93;99971.25;10417365;28;21562;-71
2022/10/23 08:17:57;;;;;;;5.32;2.03;;;;;;;15.48;79.06;99967.16;10389137;28;20078;-71
2022/10/23 08:22:58;;;;;;;5.97;2.70;;;;;;;15.64;78.65;99969.00;10404532;28;20510;-70
2022/10/23 08:28:00;;;;;;;7.95;3.05;;;;;;;15.79;78.87;99980.81;10419928;28;20060;-69
2022/10/23 08:33:06;;;;;;;2.28;1.67;;;;;;;15.86;77.63;99976.47;10408458;28;20521;-69
2022/10/23 08:38:09;;;;;;;3.75;2.15;;;;;;;15.89;77.77;99964.59;10403822;28;20561;-69
2022/10/23 08:43:10;;;;;;;6.80;2.00;;;;;;;16.01;77.43;99962.44;10414954;28;20075;-70
2022/10/23 08:48:24;;;;;;;5.25;3.45;;;;;;;16.07;77.36;99951.03;10403537;28;20040;-71
2022/10/23 08:53:39;;;;;;;;;;;;;;;16.22;77.02;99949.34;10405392;28;20056;-70
2022/10/23 08:58:47;;;;;;;2.83;2.30;;;;;;;16.47;75.64;99933.22;10417302;28;19920;-73
2022/10/23 09:03:49;;;;;;;6.47;3.03;;;;;;;16.73;74.82;99938.38;10397897;28;20154;-72
2022/10/23 09:09:09;;;;;;;4.30;2.50;;;;;;;16.84;74.78;99939.84;10402915;28;20706;-70
2022/10/23 09:14:43;;;;;;;3.55;2.22;;;;;;;16.68;74.29;99934.50;10382878;28;20053;-72
2022/10/23 09:19:49;;;;;;;3.65;2.17;;;;;;;16.43;76.96;99940.78;10364790;28;20055;-69
2022/10/23 09:24:50;;;;;;;3.95;2.15;;;;;;;16.30;77.62;99928.88;10372517;28;20063;-70
2022/10/23 09:29:55;;;;;;;3.20;2.00;;;;;;;16.20;77.98;99916.47;10372294;28;20081;-73
2022/10/23 09:34:56;;;;;;;4.30;2.55;;;;;;;16.22;78.80;99924.34;10371265;28;20046;-71
2022/10/23 09:40:11;;;;;;;3.63;2.67;;;;;;;16.25;78.27;99919.47;10372572;28;20061;-71
2022/10/23 09:45:33;;;;;;;4.75;2.40;;;;;;;16.33;78.33;99923.16;10369812;28;20048;-70
2022/10/23 09:50:34;;;;;;;5.55;2.13;;;;;;;16.40;78.16;99918.78;10368792;28;20048;-71
2022/10/23 09:55:36;;;;;;;3.20;2.30;;;;;;;16.67;76.21;99922.13;10367487;28;20049;-70
2022/10/23 10:00:45;;;;;;;4.45;2.58;;;;;;;17.40;74.33;99936.31;10372720;28;20064;-69
2022/10/23 10:06:01;;;;;;;2.63;2.40;;;;;;;17.28;73.98;99928.66;10364853;28;20618;-70
2022/10/23 10:11:35;;;;;;;4.82;3.30;;;;;;;17.31;73.28;99917.53;10367689;28;20053;-69
2022/10/23 10:16:56;;;;;;;4.35;2.30;;;;;;;18.32;71.05;99909.47;10362164;28;20361;-69
2022/10/23 10:22:30;;;;;;;3.65;2.35;;;;;;;19.48;63.88;99902.78;10365419;28;20071;-67
2022/10/23 10:27:53;;;;;;;3.00;1.92;;;;;;;18.69;66.93;99893.44;10373540;28;20431;-70
2022/10/23 10:33:16;;;;;;;2.63;2.00;;;;;;;18.10;69.96;99878.00;10370963;28;20048;-70
2022/10/23 10:38:27;;;;;;;3.35;1.90;;;;;;;17.73;69.98;99868.84;10369405;28;20496;-69
2022/10/23 10:43:36;;;;;;;4.43;2.47;;;;;;;17.57;72.99;99872.50;10369846;28;20045;-69
2022/10/23 10:48:48;;;;;;;3.55;2.47;;;;;;;17.47;72.25;99860.13;10369788;28;20052;-70
2022/10/23 10:54:25;;;;;;;3.85;2.08;;;;;;;17.45;72.83;99869.38;10374284;28;20053;-70
2022/10/23 10:59:36;;;;;;;2.78;2.00;;;;;;;17.37;74.62;99861.34;10375613;28;20045;-68
2022/10/23 11:04:49;;;;;;;3.13;2.22;;;;;;;17.22;74.34;99858.56;10372117;28;20084;-73
2022/10/23 11:09:51;;;;;;;3.23;2.40;;;;;;;17.16;75.48;99844.00;10401518;28;20044;-71
2022/10/23 11:14:52;;;;;;;4.07;2.47;;;;;;;17.27;75.35;99829.31;10399510;28;20291;-70
2022/10/23 11:20:31;;;;;;;4.72;2.30;;;;;;;17.75;73.01;99826.47;10409770;28;20638;-70
2022/10/23 11:25:57;;;;;;;2.53;2.17;;;;;;;18.58;70.43;99815.75;10399968;28;20710;-67
2022/10/23 11:31:25;;;;;;;3.72;2.15;;;;;;;19.04;68.44;99804.75;10384407;28;20064;-71
2022/10/23 11:36:48;;;;;;;3.15;2.40;;;;;;;18.94;68.86;99804.19;10370472;28;20611;-70
2022/10/23 11:42:09;;;;;;;4.38;2.17;;;;;;;19.82;65.93;99796.00;10411377;28;20040;-69
2022/10/23 11:47:39;;;;;;;3.90;2.55;;;;;;;19.47;66.12;99799.41;10421700;28;20045;-70
2022/10/23 11:52:57;;;;;;;2.95;2.38;;;;;;;19.15;66.99;99811.50;10420825;28;20045;-69
2022/10/23 11:58:20;;;;;;;3.83;2.78;;;;;;;19.02;67.45;99786.06;10409685;28;20151;-70
2022/10/23 12:03:28;;;;;;;3.88;2.13;;;;;;;19.50;66.97;99777.41;10415777;28;20052;-68
2022/10/23 12:08:33;;;;;;;3.00;2.10;;;;;;;21.77;59.62;99766.88;10418477;28;20053;-69
2022/10/23 12:13:37;;;;;;;5.57;2.22;;;;;;;25.78;45.61;99770.94;10416107;28;20060;-71
2022/10/23 12:18:46;;;;;;;3.72;1.52;;;;;;;30.91;35.50;99767.41;10415357;28;20624;-69
2022/10/23 12:23:47;;;;;;;2.92;1.77;;;;;;;32.57;31.72;99738.75;10413715;28;20060;-69
2022/10/23 12:28:57;;;;;;;4.00;1.90;;;;;;;33.95;29.04;99730.63;10418542;28;20064;-71
2022/10/23 12:34:08;;;;;;;3.47;1.60;;;;;;;34.97;27.46;99716.69;10399740;28;20291;-73
2022/10/23 12:39:29;;;;;;;4.03;2.15;;;;;;;35.95;26.53;99687.41;10413239;28;20052;-73
2022/10/23 12:44:31;;;;;;;3.47;1.30;;;;;;;36.55;25.41;99698.34;10415282;28;20070;-73
2022/10/23 12:49:34;;;;;;;2.45;0.82;;;;;;;36.02;25.34;99691.41;10412487;28;20464;-72
2022/10/23 12:54:38;;;;;;;2.85;1.00;;;;;;;37.20;24.76;99674.09;10416326;28;20053;-74
2022/10/23 12:59:41;;;;;;;2.63;0.90;;;;;;;34.38;26.68;99669.13;10411874;28;20057;-77
2022/10/23 13:04:42;;;;;;;2.45;0.90;;;;;;;32.40;30.25;99654.53;10411966;28;20048;-73
2022/10/23 13:09:44;;;;;;;2.08;0.70;;;;;;;31.31;31.17;99661.41;10412862;28;20041;-71
2022/10/23 13:15:16;;;;;;;3.95;0.90;;;;;;;28.06;36.25;99643.06;10412954;28;20048;-70
2022/10/23 13:20:22;;;;;;;1.73;1.20;;;;;;;26.13;41.11;99628.34;10370775;28;20117;-69
2022/10/23 13:25:31;;;;;;;2.13;0.90;;;;;;;26.15;40.72;99636.28;10370399;28;20066;-70
2022/10/23 13:30:45;;;;;;;2.22;1.10;;;;;;;26.51;40.44;99629.63;10372763;28;20233;-68
2022/10/23 13:35:57;;;;;;;1.88;1.00;;;;;;;25.39;42.04;99617.97;10370463;28;20042;-70
2022/10/23 13:40:59;;;;;;;3.83;1.02;;;;;;;24.88;43.63;99610.19;10369409;28;20045;-70
2022/10/23 13:46:01;;;;;;;1.75;1.30;;;;;;;24.54;44.90;99611.72;10370492;28;20265;-69
2022/10/23 13:51:16;;;;;;;1.35;1.13;;;;;;;24.79;44.37;99602.59;10370215;28;20067;-69
2022/10/23 13:56:19;;;;;;;1.65;1.35;;;;;;;23.96;46.01;99586.75;10369814;28;20038;-70
2022/10/23 14:01:27;;;;;;;1.73;1.10;;;;;;;23.69;46.40;99582.63;10371473;28;20120;-69
2022/10/23 14:06:30;;;;;;;2.60;1.55;;;;;;;22.73;48.77;99580.16;10368605;28;20247;-69
2022/10/23 14:11:32;;;;;;;1.52;1.10;;;;;;;22.38;50.74;99572.44;10375999;28;20067;-69
2022/10/23 14:16:34;;;;;;;1.90;1.33;;;;;;;22.98;49.35;99571.19;10370764;28;20053;-67
2022/10/23 14:21:35;;;;;;;2.80;1.10;;;;;;;22.97;49.54;99577.66;10372930;28;20378;-69
2022/10/23 14:26:36;;;;;;;1.98;1.15;;;;;;;22.29;51.74;99579.13;10382606;28;20056;-72
2022/10/23 14:31:38;;;;;;;1.85;1.45;;;;;;;21.94;52.82;99579.50;10367487;28;20063;-70
2022/10/23 14:36:39;;;;;;;2.97;1.30;;;;;;;21.60;54.24;99576.06;10372773;28;20049;-69
2022/10/23 14:41:51;;;;;;;2.63;1.00;;;;;;;21.23;55.62;99556.72;10414756;28;20527;-68
2022/10/23 14:46:52;;;;;;;2.13;1.17;;;;;;;20.85;57.39;99541.97;10418225;28;20057;-70
2022/10/23 14:51:53;;;;;;;1.95;0.98;;;;;;;20.64;58.58;99540.25;10409394;28;20072;-69
2022/10/23 14:56:55;;;;;;;2.22;1.13;;;;;;;20.37;59.53;99544.81;10373841;28;20053;-69
2022/10/23 15:01:56;;;;;;;2.22;1.17;;;;;;;20.23;60.19;99538.53;10380034;28;20044;-69
2022/10/23 15:06:57;;;;;;;2.10;1.13;;;;;;;20.11;61.20;99535.59;10378116;28;20075;-68
2022/10/23 15:11:58;;;;;;;2.38;1.17;;;;;;;19.99;62.06;99527.25;10416661;28;20067;-68
2022/10/23 15:17:00;;;;;;;2.15;1.05;;;;;;;19.91;63.08;99511.25;10417805;28;20064;-68
2022/10/23 15:22:01;;;;;;;3.58;1.10;;;;;;;19.85;63.30;99503.94;10413541;28;20053;-69
2022/10/23 15:27:02;;;;;;;1.80;1.13;;;;;;;19.77;64.20;99497.69;10418748;28;20051;-69
2022/10/23 15:32:04;;;;;;;1.42;1.30;;;;;;;19.67;64.54;99491.78;10383630;28;20059;-67
2022/10/23 15:37:06;;;;;;;1.88;0.98;;;;;;;19.60;65.24;99488.22;10378087;28;20235;-67
2022/10/23 15:42:09;;;;;;;2.22;1.48;;;;;;;19.49;66.11;99497.72;10400259;28;20060;-68
2022/10/23 15:47:10;;;;;;;4.45;1.90;;;;;;;19.37;66.81;99481.28;10415795;28;20045;-68
2022/10/23 15:52:12;;;;;;;2.13;1.40;;;;;;;19.25;67.42;99478.31;10417195;28;20765;-70
2022/10/23 15:57:13;;;;;;;2.35;1.23;;;;;;;19.18;67.94;99471.22;10417413;28;20075;-69
2022/10/23 16:02:14;;;;;;;4.00;1.70;;;;;;;19.13;68.42;99454.81;10417706;28;20052;-69
2022/10/23 16:07:16;;;;;;;3.20;1.88;;;;;;;19.05;69.02;99456.63;10415241;28;20059;-69
2022/10/23 16:12:17;;;;;;;2.90;1.80;;;;;;;19.01;69.25;99444.56;10420868;28;20048;-69
2022/10/23 16:17:18;;;;;;;3.80;1.80;;;;;;;18.94;69.65;99446.38;10401141;28;20060;-70
2022/10/23 16:22:20;;;;;;;3.53;1.30;;;;;;;18.92;69.89;99453.84;10417320;28;20056;-69
2022/10/23 16:27:21;;;;;;;4.22;1.75;;;;;;;18.86;69.84;99425.78;10413121;28;20053;-66
2022/10/23 16:32:22;;;;;;;2.60;1.35;;;;;;;18.81;70.34;99433.63;10416458;28;20049;-69
2022/10/23 16:37:23;;;;;;;3.60;1.40;;;;;;;18.82;71.01;99446.03;10417466;28;20060;-67
2022/10/23 16:42:25;;;;;;;3.97;1.70;;;;;;;18.85;70.87;99455.63;10397428;28;20143;-69
2022/10/23 16:47:29;;;;;;;4.18;1.70;;;;;;;18.83;70.81;99441.50;10396790;28;20454;-68
2022/10/23 16:52:32;;;;;;;4.70;1.30;;;;;;;18.83;71.67;99442.34;10417193;28;20040;-69
2022/10/23 16:57:35;;;;;;;3.35;1.70;;;;;;;18.78;71.61;99465.50;10411540;28;20511;-70
2022/10/23 17:02:36;;;;;;;4.10;1.87;;;;;;;18.79;72.11;99451.00;10413291;28;20052;-69
2022/10/23 17:07:38;;;;;;;4.75;1.85;;;;;;;18.72;72.60;99432.94;10385582;28;20163;-68
2022/10/23 17:12:39;;;;;;;6.05;4.32;;;;;;;18.78;73.57;99412.44;10414046;28;20082;-68
2022/10/23 17:17:41;;;;;;;5.93;5.03;;;;;;;18.77;73.54;99418.03;10398024;28;20499;-70
2022/10/23 17:22:43;;;;;;;6.18;3.03;;;;;;;18.67;73.89;99405.72;10412126;28;20082;-71
2022/10/23 17:27:45;;;;;;;3.42;3.05;;;;;;;18.67;74.03;99394.94;10393065;28;20073;-68
2022/10/23 17:32:46;;;;;;;5.32;2.90;;;;;;;18.66;74.57;99382.50;10394536;28;20056;-69
2022/10/23 17:37:49;;;;;;;4.65;2.85;;;;;;;18.63;74.57;99380.22;10415559;28;20063;-69
2022/10/23 17:42:50;;;;;;;4.07;3.10;;;;;;;18.57;74.15;99425.97;10403150;28;20052;-66
2022/10/23 17:47:52;;;;;;;5.75;3.72;;;;;;;18.40;74.94;99463.16;10408592;28;20067;-67
2022/10/23 17:52:53;;;;;;;8.27;4.03;;;;;;;18.24;77.36;99618.63;10409663;28;20059;-67
2022/10/23 17:57:54;;;;;;;7.97;5.07;;;;;;;17.70;88.57;99624.28;10407272;28;20067;-66
2022/10/23 18:02:55;;;;;;;5.47;3.63;;;;;;;17.57;91.82;99600.72;10396948;28;20055;-68
2022/10/23 18:07:57;;;;;;;5.68;3.35;;;;;;;17.72;91.78;99606.13;10417888;28;20049;-70
2022/10/23 18:12:58;;;;;;;4.20;3.67;;;;;;;17.83;91.79;99609.19;10414381;28;20048;-70
2022/10/23 18:18:06;;;;;;;5.10;3.22;;;;;;;17.76;91.50;99618.16;10404938;28;20055;-69
2022/10/23 18:23:07;;;;;;;6.00;3.17;;;;;;;17.70;93.23;99618.91;10404792;28;20503;-71
2022/10/23 18:28:09;;;;;;;4.97;3.70;;;;;;;17.54;95.68;99607.31;10411249;28;20044;-69
2022/10/23 18:33:10;;;;;;;8.75;4.53;;;;;;;17.47;97.87;99603.66;10418145;28;20052;-69
2022/10/23 18:38:12;;;;;;;5.47;4.13;;;;;;;17.41;98.49;99597.16;10421606;28;20086;-71
2022/10/23 18:43:14;;;;;;;6.53;4.60;;;;;;;17.35;98.61;99597.09;10418112;28;20091;-70
2022/10/23 18:48:31;;;;;;;10.10;4.30;;;;;;;17.31;99.22;99581.31;10420553;28;20055;-70
2022/10/23 18:53:33;;;;;;;5.50;3.55;;;;;;;17.39;100.00;99577.69;10413618;28;20048;-69
2022/10/23 18:58:34;;;;;;;8.55;4.18;;;;;;;17.49;99.58;99564.81;10417202;28;20057;-71
2022/10/23 19:03:35;;;;;;;8.00;4.75;;;;;;;17.44;98.80;99574.44;10378378;28;20053;-69
2022/10/23 19:08:39;;;;;;;9.73;4.28;;;;;;;17.41;100.00;99561.38;10385383;28;20056;-72
2022/10/23 19:13:41;;;;;;;10.48;4.45;;;;;;;17.39;100.00;99558.03;10376501;28;20471;-71
2022/10/23 19:18:50;;;;;;;5.25;3.50;;;;;;;17.20;100.00;99552.16;10381838;28;21235;-72
2022/10/23 19:23:52;;;;;;;7.60;3.63;;;;;;;17.16;100.00;99553.56;10378280;28;21147;-72
2022/10/23 19:28:53;;;;;;;6.28;3.60;;;;;;;17.12;100.00;99557.63;10371148;28;20056;-71
2022/10/23 19:33:54;;;;;;;5.07;3.50;;;;;;;17.01;100.00;99558.06;10381748;28;20308;-75
2022/10/23 19:38:55;;;;;;;7.82;3.90;;;;;;;16.93;100.00;99575.97;10384365;28;20061;-70
2022/10/23 19:43:57;;;;;;;6.65;3.72;;;;;;;16.91;100.00;99582.53;10388649;28;20054;-70
2022/10/23 19:48:58;;;;;;;8.85;3.70;;;;;;;16.90;100.00;99576.34;10394631;28;20083;-72
2022/10/23 19:53:59;;;;;;;6.80;4.07;;;;;;;16.92;100.00;99586.91;10389237;28;20049;-73
2022/10/23 19:59:01;;;;;;;6.60;3.83;;;;;;;16.94;100.00;99566.88;10378201;28;20530;-73
2022/10/23 20:04:02;;;;;;;7.20;3.67;;;;;;;16.98;100.00;99567.34;10374438;28;21096;-72
2022/10/23 20:09:08;;;;;;;5.80;3.58;;;;;;;16.99;100.00;99578.94;10372585;28;20061;-73
2022/10/23 20:14:11;;;;;;;7.13;3.72;;;;;;;17.03;100.00;99591.81;10374532;28;20049;-72
2022/10/23 20:19:15;;;;;;;6.80;4.50;;;;;;;17.07;100.00;99597.66;10374779;28;20790;-72
2022/10/23 20:24:18;;;;;;;7.32;4.00;;;;;;;17.11;100.00;99598.97;10378022;28;20053;-70
2022/10/23 20:29:20;;;;;;;10.60;4.25;;;;;;;17.08;100.00;99604.72;10385178;28;20045;-71
2022/10/23 20:34:21;;;;;;;7.50;3.63;;;;;;;17.11;100.00;99599.84;10389482;28;20053;-73
2022/10/23 20:39:24;;;;;;;6.63;4.03;;;;;;;17.13;100.00;99603.16;10380200;28;20357;-70
2022/10/23 20:44:25;;;;;;;5.77;4.13;;;;;;;17.06;100.00;99614.84;10389221;28;20419;-71
2022/10/23 20:49:27;;;;;;;6.53;4.90;;;;;;;17.01;100.00;99598.38;10389121;28;20506;-69
2022/10/23 20:54:28;;;;;;;8.90;3.58;;;;;;;17.00;100.00;99618.25;10388139;28;20053;-71
2022/10/23 20:59:29;;;;;;;7.68;4.25;;;;;;;16.96;100.00;99607.88;10406121;28;20057;-70
2022/10/23 21:04:31;;;;;;;5.90;4.05;;;;;;;16.92;100.00;99609.22;10391006;28;20481;-73
2022/10/23 21:09:32;;;;;;;6.28;4.57;;;;;;;16.91;100.00;99599.47;10389308;28;20055;-70
2022/10/23 21:14:34;;;;;;;7.35;5.38;;;;;;;16.90;100.00;99613.09;10400538;28;20049;-72
2022/10/23 21:19:35;;;;;;;6.50;4.25;;;;;;;16.87;100.00;99595.47;10391413;28;20053;-70
2022/10/23 21:24:37;;;;;;;11.25;4.65;;;;;;;16.91;100.00;99610.25;10393732;28;20049;-70
2022/10/23 21:29:38;;;;;;;5.75;3.95;;;;;;;16.92;100.00;99616.47;10408581;28;20061;-69
2022/10/23 21:34:39;;;;;;;9.23;4.40;;;;;;;16.90;100.00;99607.72;10388074;28;20045;-71
2022/10/23 21:39:42;;;;;;;7.85;4.88;;;;;;;16.92;100.00;99611.09;10392340;28;20060;-69
2022/10/23 21:44:43;;;;;;;5.85;4.18;;;;;;;16.80;100.00;99607.97;10389690;28;20056;-70
2022/10/23 21:49:45;;;;;;;6.57;4.45;;;;;;;16.79;100.00;99612.47;10387943;28;20052;-70
2022/10/23 21:54:50;;;;;;;8.85;3.95;;;;;;;16.74;100.00;99614.88;10392131;28;20048;-69
2022/10/23 21:59:53;;;;;;;6.60;3.83;;;;;;;16.72;100.00;99626.81;10389070;28;20068;-72
2022/10/23 22:04:54;;;;;;;8.40;4.78;;;;;;;16.70;100.00;99640.44;10387914;28;20535;-69
2022/10/23 22:09:55;;;;;;;6.45;4.88;;;;;;;16.65;100.00;99639.28;10426804;28;20048;-71
2022/10/23 22:14:57;;;;;;;6.68;4.03;;;;;;;16.54;100.00;99641.38;10426431;28;20052;-71
2022/10/23 22:19:58;;;;;;;5.63;5.05;;;;;;;16.56;100.00;99633.16;10430723;28;20066;-72
2022/10/23 22:25:00;;;;;;;6.93;4.28;;;;;;;16.52;100.00;99643.41;10415428;28;20045;-70
2022/10/23 22:30:02;;;;;;;5.72;4.20;;;;;;;16.44;100.00;99636.22;10432796;28;20036;-72
2022/10/23 22:35:04;;;;;;;6.63;4.00;;;;;;;16.48;100.00;99634.00;10419721;28;20048;-72
2022/10/23 22:40:07;;;;;;;6.38;4.53;;;;;;;16.38;100.00;99620.00;10431170;28;20570;-71
2022/10/23 22:45:08;;;;;;;7.20;4.15;;;;;;;16.40;100.00;99620.66;10427318;28;20056;-71
2022/10/23 22:50:10;;;;;;;5.95;3.92;;;;;;;16.30;100.00;99631.59;10421210;28;20048;-72
2022/10/23 22:55:11;;;;;;;6.72;4.90;;;;;;;16.30;100.00;99636.13;10404756;28;20041;-73
2022/10/23 23:00:13;;;;;;;5.05;3.70;;;;;;;16.33;100.00;99639.28;10424927;28;20729;-73
2022/10/23 23:05:14;;;;;;;6.60;3.95;;;;;;;16.26;100.00;99655.28;10399821;28;20045;-71
2022/10/23 23:10:15;;;;;;;7.32;4.38;;;;;;;16.28;100.00;99657.81;10392996;28;20056;-70
2022/10/23 23:15:17;;;;;;;7.53;4.57;;;;;;;16.24;100.00;99645.72;10414321;28;20053;-71
2022/10/23 23:20:18;;;;;;;5.30;4.72;;;;;;;16.17;100.00;99655.50;10406482;28;20109;-72
2022/10/23 23:25:19;;;;;;;5.72;4.32;;;;;;;16.10;100.00;99650.00;10393528;28;20044;-72
2022/10/23 23:30:21;;;;;;;7.60;4.97;;;;;;;16.09;100.00;99642.94;10392519;28;20057;-73